Terminal Aerodrome Forecast
Issued by NWS Topeka, KS

Home | Current Version | Previous Version | Text Only | Print | Product List | Glossary On
Versions: 1 2 3 4 5 6 7 8 9 10 11 12 13 14 15 16 17 18 19 20 21 22 23
000
FTUS43 KTOP 181138
TAFTOP
TAF
KTOP 181138Z 1812/1912 VRB03KT P6SM VCTS BKN100CB
     FM181600 20007KT P6SM SCT120
     FM182300 31005KT P6SM VCTS BKN050CB
     FM190300 33003KT P6SM SKC=

USA.gov is the U.S. government's official web portal to all federal, state and local government web resources and services.